sensor_id;sensor_type;location;lat;lon;timestamp;pressure;altitude;pressure_sealevel;temperature;humidity
37304;BME280;23188;51.188;16.374;2023-12-14T00:02:49;99021.38;;;8.12;100.00
37304;BME280;23188;51.188;16.374;2023-12-14T00:06:52;99026.34;;;8.12;100.00
37304;BME280;23188;51.188;16.374;2023-12-14T00:10:55;99030.91;;;8.16;100.00
37304;BME280;23188;51.188;16.374;2023-12-14T00:14:59;99037.23;;;8.20;100.00
37304;BME280;23188;51.188;16.374;2023-12-14T00:19:02;99043.80;;;8.26;100.00
37304;BME280;23188;51.188;16.374;2023-12-14T00:23:06;99050.59;;;8.27;100.00
37304;BME280;23188;51.188;16.374;2023-12-14T00:27:09;99051.38;;;8.26;100.00
37304;BME280;23188;51.188;16.374;2023-12-14T00:31:13;99056.74;;;8.23;100.00
37304;BME280;23188;51.188;16.374;2023-12-14T00:35:16;99067.09;;;8.18;100.00
37304;BME280;23188;51.188;16.374;2023-12-14T00:39:19;99067.06;;;8.17;100.00
37304;BME280;23188;51.188;16.374;2023-12-14T00:43:23;99073.66;;;8.12;100.00
37304;BME280;23188;51.188;16.374;2023-12-14T00:47:26;99075.69;;;8.09;100.00
37304;BME280;23188;51.188;16.374;2023-12-14T00:51:30;99081.38;;;8.08;100.00
37304;BME280;23188;51.188;16.374;2023-12-14T00:55:33;99086.45;;;8.07;100.00
37304;BME280;23188;51.188;16.374;2023-12-14T00:59:36;99094.32;;;8.08;100.00
37304;BME280;23188;51.188;16.374;2023-12-14T01:03:40;99104.23;;;8.11;100.00
37304;BME280;23188;51.188;16.374;2023-12-14T01:07:43;99103.90;;;8.13;100.00
37304;BME280;23188;51.188;16.374;2023-12-14T01:11:47;99105.82;;;8.13;100.00
37304;BME280;23188;51.188;16.374;2023-12-14T01:15:50;99105.98;;;8.08;100.00
37304;BME280;23188;51.188;16.374;2023-12-14T01:19:53;99107.15;;;8.05;100.00
37304;BME280;23188;51.188;16.374;2023-12-14T01:23:57;99109.86;;;8.00;100.00
37304;BME280;23188;51.188;16.374;2023-12-14T01:28:01;99112.41;;;7.93;100.00
37304;BME280;23188;51.188;16.374;2023-12-14T01:32:05;99111.37;;;7.89;100.00
37304;BME280;23188;51.188;16.374;2023-12-14T01:36:08;99114.52;;;7.85;100.00
37304;BME280;23188;51.188;16.374;2023-12-14T01:40:12;99121.85;;;7.82;100.00
37304;BME280;23188;51.188;16.374;2023-12-14T01:44:15;99126.09;;;7.80;100.00
37304;BME280;23188;51.188;16.374;2023-12-14T01:48:18;99123.88;;;7.79;100.00
37304;BME280;23188;51.188;16.374;2023-12-14T01:52:21;99129.42;;;7.78;100.00
37304;BME280;23188;51.188;16.374;2023-12-14T01:56:25;99130.34;;;7.82;100.00
37304;BME280;23188;51.188;16.374;2023-12-14T02:04:49;99131.70;;;7.84;100.00
37304;BME280;23188;51.188;16.374;2023-12-14T02:08:53;99138.95;;;7.80;100.00
37304;BME280;23188;51.188;16.374;2023-12-14T02:12:56;99147.40;;;7.77;100.00
37304;BME280;23188;51.188;16.374;2023-12-14T02:16:59;99147.27;;;7.66;100.00
37304;BME280;23188;51.188;16.374;2023-12-14T02:21:03;99144.34;;;7.59;100.00
37304;BME280;23188;51.188;16.374;2023-12-14T02:25:07;99149.50;;;7.56;100.00
37304;BME280;23188;51.188;16.374;2023-12-14T02:29:10;99146.16;;;7.54;100.00
37304;BME280;23188;51.188;16.374;2023-12-14T02:33:14;99156.95;;;7.58;100.00
37304;BME280;23188;51.188;16.374;2023-12-14T02:37:17;99160.66;;;7.60;100.00
37304;BME280;23188;51.188;16.374;2023-12-14T02:41:21;99162.92;;;7.58;100.00
37304;BME280;23188;51.188;16.374;2023-12-14T02:45:24;99172.64;;;7.56;100.00
37304;BME280;23188;51.188;16.374;2023-12-14T02:49:27;99174.25;;;7.54;100.00
37304;BME280;23188;51.188;16.374;2023-12-14T02:53:31;99183.72;;;7.52;100.00
37304;BME280;23188;51.188;16.374;2023-12-14T02:57:34;99182.15;;;7.52;100.00
37304;BME280;23188;51.188;16.374;2023-12-14T03:01:37;99188.86;;;7.52;100.00
37304;BME280;23188;51.188;16.374;2023-12-14T03:05:41;99195.67;;;7.49;100.00
37304;BME280;23188;51.188;16.374;2023-12-14T03:09:44;99195.95;;;7.45;100.00
37304;BME280;23188;51.188;16.374;2023-12-14T03:13:47;99200.98;;;7.40;100.00
37304;BME280;23188;51.188;16.374;2023-12-14T03:17:51;99203.86;;;7.38;100.00
37304;BME280;23188;51.188;16.374;2023-12-14T03:21:54;99205.82;;;7.33;100.00
37304;BME280;23188;51.188;16.374;2023-12-14T03:25:57;99212.91;;;7.26;100.00
37304;BME280;23188;51.188;16.374;2023-12-14T03:30:00;99218.85;;;7.17;100.00
37304;BME280;23188;51.188;16.374;2023-12-14T03:34:04;99221.31;;;7.10;100.00
37304;BME280;23188;51.188;16.374;2023-12-14T03:38:08;99226.02;;;7.05;100.00
37304;BME280;23188;51.188;16.374;2023-12-14T03:42:12;99238.52;;;7.01;100.00
37304;BME280;23188;51.188;16.374;2023-12-14T03:46:15;99244.61;;;6.95;100.00
37304;BME280;23188;51.188;16.374;2023-12-14T03:50:18;99255.89;;;6.91;100.00
37304;BME280;23188;51.188;16.374;2023-12-14T03:54:21;99264.38;;;6.88;100.00
37304;BME280;23188;51.188;16.374;2023-12-14T03:58:25;99266.91;;;6.92;100.00
37304;BME280;23188;51.188;16.374;2023-12-14T04:02:28;99269.31;;;6.93;100.00
37304;BME280;23188;51.188;16.374;2023-12-14T04:06:31;99275.83;;;6.93;100.00
37304;BME280;23188;51.188;16.374;2023-12-14T04:10:34;99279.59;;;6.92;100.00
37304;BME280;23188;51.188;16.374;2023-12-14T04:14:38;99285.79;;;6.92;100.00
37304;BME280;23188;51.188;16.374;2023-12-14T04:18:41;99287.52;;;6.90;100.00
37304;BME280;23188;51.188;16.374;2023-12-14T04:22:45;99290.16;;;6.88;100.00
37304;BME280;23188;51.188;16.374;2023-12-14T04:26:48;99296.89;;;6.85;100.00
37304;BME280;23188;51.188;16.374;2023-12-14T04:30:51;99303.17;;;6.86;100.00
37304;BME280;23188;51.188;16.374;2023-12-14T04:34:54;99302.83;;;6.84;100.00
37304;BME280;23188;51.188;16.374;2023-12-14T04:38:58;99303.23;;;6.83;100.00
37304;BME280;23188;51.188;16.374;2023-12-14T04:43:01;99308.59;;;6.84;100.00
37304;BME280;23188;51.188;16.374;2023-12-14T04:47:05;99312.53;;;6.83;100.00
37304;BME280;23188;51.188;16.374;2023-12-14T04:51:11;99314.86;;;6.81;100.00
37304;BME280;23188;51.188;16.374;2023-12-14T04:55:15;99324.04;;;6.76;100.00
37304;BME280;23188;51.188;16.374;2023-12-14T04:59:18;99329.02;;;6.69;100.00
37304;BME280;23188;51.188;16.374;2023-12-14T05:03:22;99334.53;;;6.62;100.00
37304;BME280;23188;51.188;16.374;2023-12-14T05:07:25;99336.52;;;6.57;100.00
37304;BME280;23188;51.188;16.374;2023-12-14T05:11:29;99343.42;;;6.54;100.00
37304;BME280;23188;51.188;16.374;2023-12-14T05:15:32;99350.75;;;6.53;100.00
37304;BME280;23188;51.188;16.374;2023-12-14T05:19:35;99360.94;;;6.51;100.00
37304;BME280;23188;51.188;16.374;2023-12-14T05:23:39;99371.13;;;6.47;100.00
37304;BME280;23188;51.188;16.374;2023-12-14T05:27:42;99378.69;;;6.45;100.00
37304;BME280;23188;51.188;16.374;2023-12-14T05:31:46;99382.63;;;6.44;100.00
37304;BME280;23188;51.188;16.374;2023-12-14T05:35:49;99386.19;;;6.41;100.00
37304;BME280;23188;51.188;16.374;2023-12-14T05:39:52;99398.81;;;6.37;100.00
37304;BME280;23188;51.188;16.374;2023-12-14T05:43:56;99401.83;;;6.32;100.00
37304;BME280;23188;51.188;16.374;2023-12-14T05:47:59;99403.08;;;6.28;100.00
37304;BME280;23188;51.188;16.374;2023-12-14T05:52:03;99407.30;;;6.23;100.00
37304;BME280;23188;51.188;16.374;2023-12-14T05:56:06;99416.52;;;6.20;100.00
37304;BME280;23188;51.188;16.374;2023-12-14T06:00:10;99423.31;;;6.19;100.00
37304;BME280;23188;51.188;16.374;2023-12-14T06:04:14;99428.17;;;6.15;100.00
37304;BME280;23188;51.188;16.374;2023-12-14T06:08:17;99434.36;;;6.15;100.00
37304;BME280;23188;51.188;16.374;2023-12-14T06:12:20;99436.01;;;6.11;100.00
37304;BME280;23188;51.188;16.374;2023-12-14T06:16:24;99443.77;;;6.11;100.00
37304;BME280;23188;51.188;16.374;2023-12-14T06:20:27;99452.31;;;6.12;100.00
37304;BME280;23188;51.188;16.374;2023-12-14T06:24:30;99454.90;;;6.13;100.00
37304;BME280;23188;51.188;16.374;2023-12-14T06:28:34;99460.13;;;6.14;100.00
37304;BME280;23188;51.188;16.374;2023-12-14T06:32:37;99466.85;;;6.16;100.00
37304;BME280;23188;51.188;16.374;2023-12-14T06:36:44;99473.79;;;6.12;100.00
37304;BME280;23188;51.188;16.374;2023-12-14T06:40:48;99480.52;;;6.09;100.00
37304;BME280;23188;51.188;16.374;2023-12-14T06:44:51;99490.28;;;6.06;100.00
37304;BME280;23188;51.188;16.374;2023-12-14T06:48:54;99496.23;;;6.06;100.00
37304;BME280;23188;51.188;16.374;2023-12-14T06:52:58;99505.31;;;6.07;100.00
37304;BME280;23188;51.188;16.374;2023-12-14T06:57:02;99510.00;;;6.11;100.00
37304;BME280;23188;51.188;16.374;2023-12-14T07:01:05;99515.77;;;6.11;100.00
37304;BME280;23188;51.188;16.374;2023-12-14T07:05:08;99522.21;;;6.12;100.00
37304;BME280;23188;51.188;16.374;2023-12-14T07:09:12;99524.52;;;6.09;100.00
37304;BME280;23188;51.188;16.374;2023-12-14T07:13:15;99531.38;;;6.07;100.00
37304;BME280;23188;51.188;16.374;2023-12-14T07:17:18;99538.55;;;6.05;100.00
37304;BME280;23188;51.188;16.374;2023-12-14T07:21:21;99544.69;;;6.03;100.00
37304;BME280;23188;51.188;16.374;2023-12-14T07:25:25;99553.14;;;6.06;100.00
37304;BME280;23188;51.188;16.374;2023-12-14T07:29:28;99561.59;;;6.06;100.00
37304;BME280;23188;51.188;16.374;2023-12-14T07:33:31;99568.70;;;6.02;100.00
37304;BME280;23188;51.188;16.374;2023-12-14T07:37:35;99577.05;;;6.01;100.00
37304;BME280;23188;51.188;16.374;2023-12-14T07:41:39;99580.75;;;6.01;100.00
37304;BME280;23188;51.188;16.374;2023-12-14T07:45:42;99586.35;;;6.02;100.00
37304;BME280;23188;51.188;16.374;2023-12-14T07:49:45;99591.52;;;6.01;100.00
37304;BME280;23188;51.188;16.374;2023-12-14T07:53:48;99596.03;;;6.02;100.00
37304;BME280;23188;51.188;16.374;2023-12-14T07:57:52;99595.83;;;6.05;100.00
37304;BME280;23188;51.188;16.374;2023-12-14T08:01:55;99603.36;;;6.05;100.00
37304;BME280;23188;51.188;16.374;2023-12-14T08:05:58;99610.87;;;6.08;100.00
37304;BME280;23188;51.188;16.374;2023-12-14T08:10:02;99615.83;;;6.12;100.00
37304;BME280;23188;51.188;16.374;2023-12-14T08:14:06;99620.07;;;6.15;100.00
37304;BME280;23188;51.188;16.374;2023-12-14T08:18:09;99624.17;;;6.17;100.00
37304;BME280;23188;51.188;16.374;2023-12-14T08:22:13;99635.39;;;6.17;100.00
37304;BME280;23188;51.188;16.374;2023-12-14T08:26:18;99642.90;;;6.18;100.00
37304;BME280;23188;51.188;16.374;2023-12-14T08:30:21;99655.48;;;6.20;100.00
37304;BME280;23188;51.188;16.374;2023-12-14T08:34:27;99664.48;;;6.24;100.00
37304;BME280;23188;51.188;16.374;2023-12-14T08:38:30;99673.38;;;6.25;100.00
37304;BME280;23188;51.188;16.374;2023-12-14T08:42:33;99681.79;;;6.26;100.00
37304;BME280;23188;51.188;16.374;2023-12-14T08:46:42;99686.00;;;6.26;100.00
37304;BME280;23188;51.188;16.374;2023-12-14T08:50:45;99697.16;;;6.25;100.00
37304;BME280;23188;51.188;16.374;2023-12-14T08:54:48;99702.42;;;6.25;100.00
37304;BME280;23188;51.188;16.374;2023-12-14T08:58:51;99712.38;;;6.26;100.00
37304;BME280;23188;51.188;16.374;2023-12-14T09:02:55;99720.95;;;6.25;100.00
37304;BME280;23188;51.188;16.374;2023-12-14T09:06:59;99725.38;;;6.22;100.00
37304;BME280;23188;51.188;16.374;2023-12-14T09:11:02;99725.92;;;6.20;100.00
37304;BME280;23188;51.188;16.374;2023-12-14T09:15:07;99727.95;;;6.18;100.00
37304;BME280;23188;51.188;16.374;2023-12-14T09:19:10;99732.84;;;6.16;100.00
37304;BME280;23188;51.188;16.374;2023-12-14T09:23:13;99748.52;;;6.11;100.00
37304;BME280;23188;51.188;16.374;2023-12-14T09:27:17;99749.35;;;6.11;100.00
37304;BME280;23188;51.188;16.374;2023-12-14T09:31:20;99753.27;;;6.16;100.00
37304;BME280;23188;51.188;16.374;2023-12-14T09:35:24;99758.48;;;6.22;100.00
37304;BME280;23188;51.188;16.374;2023-12-14T09:39:27;99764.44;;;6.27;100.00
37304;BME280;23188;51.188;16.374;2023-12-14T09:43:33;99763.33;;;6.31;100.00
37304;BME280;23188;51.188;16.374;2023-12-14T09:47:37;99771.55;;;6.34;100.00
37304;BME280;23188;51.188;16.374;2023-12-14T09:51:41;99774.88;;;6.34;100.00
37304;BME280;23188;51.188;16.374;2023-12-14T09:55:45;99782.41;;;6.29;100.00
37304;BME280;23188;51.188;16.374;2023-12-14T09:59:55;99788.14;;;6.26;100.00
37304;BME280;23188;51.188;16.374;2023-12-14T10:04:09;99789.46;;;6.22;100.00
37304;BME280;23188;51.188;16.374;2023-12-14T10:08:13;99789.06;;;6.23;100.00
37304;BME280;23188;51.188;16.374;2023-12-14T10:12:16;99795.89;;;6.26;100.00
37304;BME280;23188;51.188;16.374;2023-12-14T10:16:40;99797.81;;;6.28;100.00
37304;BME280;23188;51.188;16.374;2023-12-14T10:20:43;99801.41;;;6.30;100.00
37304;BME280;23188;51.188;16.374;2023-12-14T10:24:47;99809.79;;;6.29;100.00
37304;BME280;23188;51.188;16.374;2023-12-14T10:28:54;99817.30;;;6.24;100.00
37304;BME280;23188;51.188;16.374;2023-12-14T10:32:57;99817.38;;;6.16;100.00
37304;BME280;23188;51.188;16.374;2023-12-14T10:37:01;99820.27;;;6.07;100.00
37304;BME280;23188;51.188;16.374;2023-12-14T10:41:09;99821.66;;;6.02;100.00
37304;BME280;23188;51.188;16.374;2023-12-14T10:45:13;99824.85;;;5.97;100.00
37304;BME280;23188;51.188;16.374;2023-12-14T10:49:27;99827.97;;;5.94;100.00
37304;BME280;23188;51.188;16.374;2023-12-14T10:53:32;99835.29;;;5.93;100.00
37304;BME280;23188;51.188;16.374;2023-12-14T10:57:36;99838.20;;;5.92;100.00
37304;BME280;23188;51.188;16.374;2023-12-14T11:01:41;99837.59;;;5.85;100.00
37304;BME280;23188;51.188;16.374;2023-12-14T11:05:45;99845.48;;;5.81;100.00
37304;BME280;23188;51.188;16.374;2023-12-14T11:09:48;99850.73;;;5.76;100.00
37304;BME280;23188;51.188;16.374;2023-12-14T11:13:53;99857.61;;;5.76;100.00
37304;BME280;23188;51.188;16.374;2023-12-14T11:22:23;99870.15;;;5.75;100.00
37304;BME280;23188;51.188;16.374;2023-12-14T11:26:27;99872.85;;;5.71;100.00
37304;BME280;23188;51.188;16.374;2023-12-14T11:30:31;99876.51;;;5.72;100.00
37304;BME280;23188;51.188;16.374;2023-12-14T11:34:55;99876.14;;;5.67;100.00
37304;BME280;23188;51.188;16.374;2023-12-14T11:38:58;99879.21;;;5.57;100.00
37304;BME280;23188;51.188;16.374;2023-12-14T11:43:04;99889.01;;;5.48;100.00
37304;BME280;23188;51.188;16.374;2023-12-14T11:47:11;99892.08;;;5.46;100.00
37304;BME280;23188;51.188;16.374;2023-12-14T11:51:15;99889.73;;;5.42;100.00
37304;BME280;23188;51.188;16.374;2023-12-14T11:55:21;99897.83;;;5.47;100.00
37304;BME280;23188;51.188;16.374;2023-12-14T11:59:26;99899.64;;;5.47;100.00
37304;BME280;23188;51.188;16.374;2023-12-14T12:03:32;99904.48;;;5.45;100.00
37304;BME280;23188;51.188;16.374;2023-12-14T12:07:36;99911.20;;;5.44;100.00
37304;BME280;23188;51.188;16.374;2023-12-14T12:11:40;99916.42;;;5.48;100.00
37304;BME280;23188;51.188;16.374;2023-12-14T12:15:43;99917.93;;;5.49;100.00
37304;BME280;23188;51.188;16.374;2023-12-14T12:19:46;99921.04;;;5.50;100.00
37304;BME280;23188;51.188;16.374;2023-12-14T12:23:50;99923.17;;;5.47;100.00
37304;BME280;23188;51.188;16.374;2023-12-14T12:27:54;99929.70;;;5.47;100.00
37304;BME280;23188;51.188;16.374;2023-12-14T12:31:58;99935.66;;;5.47;100.00
37304;BME280;23188;51.188;16.374;2023-12-14T12:36:01;99943.02;;;5.47;100.00
37304;BME280;23188;51.188;16.374;2023-12-14T12:40:06;99947.59;;;5.47;100.00
37304;BME280;23188;51.188;16.374;2023-12-14T12:44:10;99954.88;;;5.46;100.00
37304;BME280;23188;51.188;16.374;2023-12-14T12:48:13;99961.09;;;5.43;100.00
37304;BME280;23188;51.188;16.374;2023-12-14T12:52:17;99973.92;;;5.37;100.00
37304;BME280;23188;51.188;16.374;2023-12-14T12:56:20;99985.52;;;5.32;100.00
37304;BME280;23188;51.188;16.374;2023-12-14T13:00:23;99989.04;;;5.29;100.00
37304;BME280;23188;51.188;16.374;2023-12-14T13:04:28;99992.65;;;5.28;100.00
37304;BME280;23188;51.188;16.374;2023-12-14T13:08:33;99992.30;;;5.31;100.00
37304;BME280;23188;51.188;16.374;2023-12-14T13:12:36;99995.56;;;5.32;100.00
37304;BME280;23188;51.188;16.374;2023-12-14T13:16:40;99996.54;;;5.33;100.00
37304;BME280;23188;51.188;16.374;2023-12-14T13:20:43;99997.05;;;5.34;100.00
37304;BME280;23188;51.188;16.374;2023-12-14T13:24:46;100001.86;;;5.30;100.00
37304;BME280;23188;51.188;16.374;2023-12-14T13:28:54;100011.05;;;5.23;100.00
37304;BME280;23188;51.188;16.374;2023-12-14T13:32:57;100018.65;;;5.14;100.00
37304;BME280;23188;51.188;16.374;2023-12-14T13:37:00;100027.08;;;5.09;100.00
37304;BME280;23188;51.188;16.374;2023-12-14T13:41:05;100032.16;;;5.06;100.00
37304;BME280;23188;51.188;16.374;2023-12-14T13:45:08;100038.79;;;5.04;100.00
37304;BME280;23188;51.188;16.374;2023-12-14T13:49:12;100042.13;;;5.01;100.00
37304;BME280;23188;51.188;16.374;2023-12-14T13:53:15;100045.30;;;4.98;100.00
37304;BME280;23188;51.188;16.374;2023-12-14T13:57:22;100052.06;;;4.91;100.00
37304;BME280;23188;51.188;16.374;2023-12-14T14:01:28;100058.16;;;4.83;100.00
37304;BME280;23188;51.188;16.374;2023-12-14T14:05:32;100064.83;;;4.78;100.00
37304;BME280;23188;51.188;16.374;2023-12-14T14:09:36;100075.77;;;4.80;100.00
37304;BME280;23188;51.188;16.374;2023-12-14T14:13:39;100089.02;;;4.70;100.00
37304;BME280;23188;51.188;16.374;2023-12-14T14:17:42;100105.46;;;4.62;100.00
37304;BME280;23188;51.188;16.374;2023-12-14T14:21:46;100114.02;;;4.54;100.00
37304;BME280;23188;51.188;16.374;2023-12-14T14:25:51;100121.98;;;4.47;100.00
37304;BME280;23188;51.188;16.374;2023-12-14T14:29:56;100132.52;;;4.44;100.00
37304;BME280;23188;51.188;16.374;2023-12-14T14:34:00;100134.45;;;4.47;100.00
37304;BME280;23188;51.188;16.374;2023-12-14T14:38:03;100152.76;;;4.46;100.00
37304;BME280;23188;51.188;16.374;2023-12-14T14:42:06;100162.90;;;4.41;100.00
37304;BME280;23188;51.188;16.374;2023-12-14T14:46:10;100167.27;;;4.35;100.00
37304;BME280;23188;51.188;16.374;2023-12-14T14:50:13;100172.78;;;4.28;100.00
37304;BME280;23188;51.188;16.374;2023-12-14T14:54:16;100184.42;;;4.21;100.00
37304;BME280;23188;51.188;16.374;2023-12-14T14:58:20;100185.71;;;4.20;100.00
37304;BME280;23188;51.188;16.374;2023-12-14T15:02:23;100195.72;;;4.20;100.00
37304;BME280;23188;51.188;16.374;2023-12-14T15:06:26;100205.75;;;4.16;100.00
37304;BME280;23188;51.188;16.374;2023-12-14T15:10:29;100211.98;;;4.14;100.00
37304;BME280;23188;51.188;16.374;2023-12-14T15:14:33;100219.92;;;4.04;100.00
37304;BME280;23188;51.188;16.374;2023-12-14T15:18:36;100227.59;;;4.01;100.00
37304;BME280;23188;51.188;16.374;2023-12-14T15:22:44;100236.33;;;3.99;100.00
37304;BME280;23188;51.188;16.374;2023-12-14T15:26:48;100245.39;;;3.97;100.00
37304;BME280;23188;51.188;16.374;2023-12-14T15:30:51;100252.33;;;3.95;100.00
37304;BME280;23188;51.188;16.374;2023-12-14T15:34:55;100264.49;;;3.94;100.00
37304;BME280;23188;51.188;16.374;2023-12-14T15:38:59;100270.62;;;3.95;100.00
37304;BME280;23188;51.188;16.374;2023-12-14T15:43:05;100274.07;;;3.89;100.00
37304;BME280;23188;51.188;16.374;2023-12-14T15:47:08;100284.38;;;3.90;100.00
37304;BME280;23188;51.188;16.374;2023-12-14T15:51:11;100295.97;;;3.86;100.00
37304;BME280;23188;51.188;16.374;2023-12-14T15:55:15;100305.48;;;3.86;100.00
37304;BME280;23188;51.188;16.374;2023-12-14T15:59:18;100310.29;;;3.84;100.00
37304;BME280;23188;51.188;16.374;2023-12-14T16:03:21;100310.70;;;3.86;100.00
37304;BME280;23188;51.188;16.374;2023-12-14T16:07:24;100317.29;;;3.91;100.00
37304;BME280;23188;51.188;16.374;2023-12-14T16:11:27;100323.34;;;3.93;100.00
37304;BME280;23188;51.188;16.374;2023-12-14T16:15:30;100331.25;;;3.85;100.00
37304;BME280;23188;51.188;16.374;2023-12-14T16:19:33;100335.52;;;3.81;100.00
37304;BME280;23188;51.188;16.374;2023-12-14T16:23:36;100342.17;;;3.81;100.00
37304;BME280;23188;51.188;16.374;2023-12-14T16:27:41;100349.81;;;3.80;100.00
37304;BME280;23188;51.188;16.374;2023-12-14T16:31:44;100354.70;;;3.70;100.00
37304;BME280;23188;51.188;16.374;2023-12-14T16:35:47;100366.73;;;3.72;100.00
37304;BME280;23188;51.188;16.374;2023-12-14T16:39:51;100380.91;;;3.69;100.00
37304;BME280;23188;51.188;16.374;2023-12-14T16:43:54;100387.81;;;3.71;100.00
37304;BME280;23188;51.188;16.374;2023-12-14T16:47:57;100396.77;;;3.74;100.00
37304;BME280;23188;51.188;16.374;2023-12-14T16:52:00;100400.20;;;3.69;100.00
37304;BME280;23188;51.188;16.374;2023-12-14T16:56:04;100408.31;;;3.71;100.00
37304;BME280;23188;51.188;16.374;2023-12-14T17:00:10;100412.91;;;3.67;100.00
37304;BME280;23188;51.188;16.374;2023-12-14T17:04:13;100415.74;;;3.56;100.00
37304;BME280;23188;51.188;16.374;2023-12-14T17:08:16;100418.95;;;3.59;100.00
37304;BME280;23188;51.188;16.374;2023-12-14T17:12:19;100432.20;;;3.56;100.00
37304;BME280;23188;51.188;16.374;2023-12-14T17:16:22;100433.05;;;3.57;100.00
37304;BME280;23188;51.188;16.374;2023-12-14T17:20:25;100435.10;;;3.62;100.00
37304;BME280;23188;51.188;16.374;2023-12-14T17:24:29;100436.14;;;3.58;100.00
37304;BME280;23188;51.188;16.374;2023-12-14T17:28:32;100440.19;;;3.54;100.00
37304;BME280;23188;51.188;16.374;2023-12-14T17:32:35;100454.58;;;3.58;100.00
37304;BME280;23188;51.188;16.374;2023-12-14T17:36:39;100457.93;;;3.62;100.00
37304;BME280;23188;51.188;16.374;2023-12-14T17:40:44;100461.09;;;3.68;100.00
37304;BME280;23188;51.188;16.374;2023-12-14T17:44:47;100473.23;;;3.75;100.00
37304;BME280;23188;51.188;16.374;2023-12-14T17:48:51;100480.06;;;3.78;100.00
37304;BME280;23188;51.188;16.374;2023-12-14T17:52:54;100479.91;;;3.81;100.00
37304;BME280;23188;51.188;16.374;2023-12-14T17:57:01;100481.88;;;3.91;100.00
37304;BME280;23188;51.188;16.374;2023-12-14T18:01:04;100488.30;;;3.93;100.00
37304;BME280;23188;51.188;16.374;2023-12-14T18:05:08;100495.09;;;3.93;100.00
37304;BME280;23188;51.188;16.374;2023-12-14T18:09:12;100503.24;;;3.92;100.00
37304;BME280;23188;51.188;16.374;2023-12-14T18:13:15;100514.92;;;3.90;100.00
37304;BME280;23188;51.188;16.374;2023-12-14T18:17:20;100525.40;;;3.94;100.00
37304;BME280;23188;51.188;16.374;2023-12-14T18:21:24;100532.38;;;4.02;100.00
37304;BME280;23188;51.188;16.374;2023-12-14T18:25:27;100538.56;;;4.08;100.00
37304;BME280;23188;51.188;16.374;2023-12-14T18:29:30;100541.09;;;4.18;100.00
37304;BME280;23188;51.188;16.374;2023-12-14T18:33:33;100548.58;;;4.26;100.00
37304;BME280;23188;51.188;16.374;2023-12-14T18:37:36;100557.91;;;4.28;100.00
37304;BME280;23188;51.188;16.374;2023-12-14T18:41:40;100565.48;;;4.32;100.00
37304;BME280;23188;51.188;16.374;2023-12-14T18:45:43;100567.70;;;4.33;100.00
37304;BME280;23188;51.188;16.374;2023-12-14T18:49:47;100580.73;;;4.32;100.00
37304;BME280;23188;51.188;16.374;2023-12-14T18:53:50;100589.63;;;4.30;100.00
37304;BME280;23188;51.188;16.374;2023-12-14T18:57:53;100597.17;;;4.23;100.00
37304;BME280;23188;51.188;16.374;2023-12-14T19:01:57;100607.15;;;4.20;100.00
37304;BME280;23188;51.188;16.374;2023-12-14T19:06:00;100617.46;;;4.10;100.00
37304;BME280;23188;51.188;16.374;2023-12-14T19:10:12;100625.23;;;4.09;100.00
37304;BME280;23188;51.188;16.374;2023-12-14T19:14:16;100632.52;;;4.07;100.00
37304;BME280;23188;51.188;16.374;2023-12-14T19:18:19;100643.80;;;4.10;100.00
37304;BME280;23188;51.188;16.374;2023-12-14T19:22:23;100649.85;;;4.12;100.00
37304;BME280;23188;51.188;16.374;2023-12-14T19:26:26;100654.24;;;4.05;100.00
37304;BME280;23188;51.188;16.374;2023-12-14T19:30:30;100669.14;;;4.01;100.00
37304;BME280;23188;51.188;16.374;2023-12-14T19:34:33;100673.79;;;3.96;100.00
37304;BME280;23188;51.188;16.374;2023-12-14T19:38:37;100682.84;;;3.94;100.00
37304;BME280;23188;51.188;16.374;2023-12-14T19:42:40;100688.05;;;3.91;100.00
37304;BME280;23188;51.188;16.374;2023-12-14T19:46:43;100685.20;;;3.92;100.00
37304;BME280;23188;51.188;16.374;2023-12-14T19:50:46;100695.40;;;3.95;100.00
37304;BME280;23188;51.188;16.374;2023-12-14T19:54:49;100706.27;;;3.92;100.00
37304;BME280;23188;51.188;16.374;2023-12-14T19:58:52;100706.78;;;3.92;100.00
37304;BME280;23188;51.188;16.374;2023-12-14T20:02:56;100717.06;;;3.86;100.00
37304;BME280;23188;51.188;16.374;2023-12-14T20:07:00;100724.41;;;3.87;100.00
37304;BME280;23188;51.188;16.374;2023-12-14T20:11:03;100728.30;;;3.82;100.00
37304;BME280;23188;51.188;16.374;2023-12-14T20:15:11;100734.73;;;3.76;100.00
37304;BME280;23188;51.188;16.374;2023-12-14T20:19:14;100745.50;;;3.66;100.00
37304;BME280;23188;51.188;16.374;2023-12-14T20:23:18;100751.98;;;3.55;100.00
37304;BME280;23188;51.188;16.374;2023-12-14T20:27:21;100757.84;;;3.45;100.00
37304;BME280;23188;51.188;16.374;2023-12-14T20:31:24;100760.59;;;3.39;100.00
37304;BME280;23188;51.188;16.374;2023-12-14T20:35:27;100764.15;;;3.34;100.00
37304;BME280;23188;51.188;16.374;2023-12-14T20:39:30;100768.41;;;3.28;100.00
37304;BME280;23188;51.188;16.374;2023-12-14T20:43:35;100775.39;;;3.24;100.00
37304;BME280;23188;51.188;16.374;2023-12-14T20:47:39;100783.23;;;3.18;100.00
37304;BME280;23188;51.188;16.374;2023-12-14T20:51:43;100789.98;;;3.15;100.00
37304;BME280;23188;51.188;16.374;2023-12-14T20:55:47;100803.23;;;3.13;100.00
37304;BME280;23188;51.188;16.374;2023-12-14T20:59:50;100806.63;;;3.16;100.00
37304;BME280;23188;51.188;16.374;2023-12-14T21:03:55;100820.29;;;3.07;100.00
37304;BME280;23188;51.188;16.374;2023-12-14T21:07:58;100827.09;;;3.00;100.00
37304;BME280;23188;51.188;16.374;2023-12-14T21:12:02;100824.30;;;2.99;100.00
37304;BME280;23188;51.188;16.374;2023-12-14T21:16:06;100822.65;;;2.97;100.00